createdAt,value
2018-05-13T00:01:16.042Z,11.00
2018-05-13T00:03:44.308Z,11.77
2018-05-13T00:06:13.451Z,10.70
2018-05-13T00:08:42.489Z,10.13
2018-05-13T00:11:10.724Z,11.93
2018-05-13T00:13:39.749Z,12.13
2018-05-13T00:16:07.979Z,11.63
2018-05-13T00:18:36.239Z,10.70
2018-05-13T00:21:05.176Z,11.40
2018-05-13T00:23:34.211Z,11.27
2018-05-13T00:26:02.453Z,11.13
2018-05-13T00:28:31.193Z,11.10
2018-05-13T00:30:59.452Z,11.33
2018-05-13T00:33:28.467Z,11.30
2018-05-13T00:35:56.709Z,11.47
2018-05-13T00:38:25.743Z,12.17
2018-05-13T00:40:54.013Z,13.03
2018-05-13T00:43:22.300Z,12.30
2018-05-13T00:45:51.412Z,11.67
2018-05-13T00:48:19.714Z,11.40
2018-05-13T00:50:47.940Z,10.97
2018-05-13T00:53:17.556Z,11.63
2018-05-13T00:55:46.584Z,11.40
2018-05-13T00:58:14.828Z,11.20
2018-05-13T01:00:43.904Z,12.13
2018-05-13T01:03:12.195Z,11.73
2018-05-13T01:05:40.493Z,12.67
2018-05-13T01:08:08.748Z,11.50
2018-05-13T01:10:37.057Z,11.60
2018-05-13T01:13:06.071Z,11.63
2018-05-13T01:15:35.090Z,11.67
2018-05-13T01:18:03.348Z,10.70
2018-05-13T01:20:31.652Z,11.23
2018-05-13T01:22:59.896Z,10.43
2018-05-13T01:25:28.161Z,11.40
2018-05-13T01:27:56.411Z,10.63
2018-05-13T01:30:24.693Z,11.00
2018-05-13T01:32:52.939Z,12.00
2018-05-13T01:35:21.199Z,11.17
2018-05-13T01:37:49.441Z,10.80
2018-05-13T01:40:18.465Z,12.27
2018-05-13T01:42:46.708Z,12.50
2018-05-13T01:45:14.980Z,11.90
2018-05-13T01:47:43.257Z,12.13
2018-05-13T01:50:11.511Z,12.10
2018-05-13T01:52:40.539Z,11.90
2018-05-13T01:55:08.812Z,12.37
2018-05-13T01:57:37.055Z,11.83
2018-05-13T02:00:05.345Z,12.37
2018-05-13T02:02:34.352Z,12.53
2018-05-13T02:05:03.395Z,12.40
2018-05-13T02:07:31.653Z,12.03
2018-05-13T02:09:59.906Z,11.37
2018-05-13T02:12:28.153Z,12.40
2018-05-13T02:14:56.412Z,10.97
2018-05-13T02:17:24.699Z,12.60
2018-05-13T02:19:53.540Z,13.33
2018-05-13T02:22:21.821Z,12.93
2018-05-13T02:24:50.127Z,13.33
2018-05-13T02:27:18.394Z,13.37
2018-05-13T02:29:52.078Z,12.37
2018-05-13T02:32:20.318Z,13.13
2018-05-13T02:34:48.576Z,12.07
2018-05-13T02:37:16.813Z,13.63
2018-05-13T02:39:45.084Z,13.00
2018-05-13T02:42:13.318Z,14.20
2018-05-13T02:44:41.600Z,14.37
2018-05-13T02:47:10.594Z,13.30
2018-05-13T02:49:40.352Z,14.47
2018-05-13T02:52:08.645Z,14.37
2018-05-13T02:54:36.896Z,14.30
2018-05-13T02:57:05.177Z,12.93
2018-05-13T02:59:33.441Z,13.27
2018-05-13T03:02:03.229Z,13.67
2018-05-13T03:04:31.473Z,14.03
2018-05-13T03:06:59.730Z,12.90
2018-05-13T03:09:27.967Z,12.73
2018-05-13T03:11:56.237Z,11.83
2018-05-13T03:14:24.980Z,12.53
2018-05-13T03:16:53.300Z,12.77
2018-05-13T03:19:21.558Z,11.47
2018-05-13T03:21:49.824Z,11.73
2018-05-13T03:24:18.149Z,11.67
2018-05-13T03:26:46.487Z,12.60
2018-05-13T03:29:14.755Z,12.00
2018-05-13T03:31:43.802Z,12.50
2018-05-13T03:34:12.060Z,11.83
2018-05-13T03:36:40.331Z,11.83
2018-05-13T03:39:08.561Z,12.57
2018-05-13T03:41:36.860Z,11.10
2018-05-13T03:44:05.101Z,12.83
2018-05-13T03:46:33.386Z,12.63
2018-05-13T03:49:01.677Z,12.77
2018-05-13T03:51:30.640Z,12.77
2018-05-13T03:53:59.752Z,12.23
2018-05-13T03:56:28.018Z,11.10
2018-05-13T03:58:56.250Z,13.43
2018-05-13T04:01:25.324Z,12.50
2018-05-13T04:03:53.569Z,12.10
2018-05-13T04:06:22.680Z,11.17
2018-05-13T04:09:03.485Z,12.33
2018-05-13T04:11:43.564Z,10.83
2018-05-13T04:14:23.690Z,11.00
2018-05-13T04:16:51.952Z,11.03
2018-05-13T04:19:20.216Z,11.57
2018-05-13T04:21:48.480Z,10.43
2018-05-13T04:24:17.492Z,12.50
2018-05-13T04:26:45.763Z,12.77
2018-05-13T04:29:14.008Z,14.17
2018-05-13T04:31:43.045Z,13.73
2018-05-13T04:34:12.047Z,12.17
2018-05-13T04:36:40.914Z,13.30
2018-05-13T04:39:09.197Z,14.27
2018-05-13T04:41:38.232Z,12.80
2018-05-13T04:44:06.479Z,13.87
2018-05-13T04:46:35.512Z,14.33
2018-05-13T04:49:03.764Z,11.37
2018-05-13T04:51:32.784Z,11.83
2018-05-13T04:54:01.019Z,12.13
2018-05-13T04:56:29.272Z,12.67
2018-05-13T04:58:57.534Z,11.43
2018-05-13T05:01:25.798Z,11.00
2018-05-13T05:03:54.033Z,11.20
2018-05-13T05:06:22.316Z,11.47
2018-05-13T05:08:50.559Z,12.03
2018-05-13T05:11:18.800Z,10.87
2018-05-13T05:13:47.069Z,10.83
2018-05-13T05:16:15.995Z,11.77
2018-05-13T05:18:45.030Z,12.33
2018-05-13T05:21:13.271Z,11.90
2018-05-13T05:23:42.395Z,12.53
2018-05-13T05:26:11.383Z,12.53
2018-05-13T05:28:40.243Z,12.93
2018-05-13T05:31:08.493Z,14.07
2018-05-13T05:33:36.755Z,13.57
2018-05-13T05:36:05.004Z,13.30
2018-05-13T05:38:34.028Z,13.73
2018-05-13T05:41:02.404Z,14.10
2018-05-13T05:43:31.388Z,12.80
2018-05-13T05:46:00.425Z,14.27
2018-05-13T05:48:29.040Z,13.10
2018-05-13T05:50:57.151Z,13.27
2018-05-13T05:53:26.280Z,14.37
2018-05-13T05:55:54.536Z,14.60
2018-05-13T05:58:26.611Z,15.10
2018-05-13T06:00:54.877Z,14.17
2018-05-13T06:03:23.904Z,14.00
2018-05-13T06:05:52.271Z,15.80
2018-05-13T06:08:21.312Z,15.90
2018-05-13T06:10:49.570Z,15.50
2018-05-13T06:13:17.832Z,14.30
2018-05-13T06:15:46.868Z,14.87
2018-05-13T06:18:15.125Z,14.60
2018-05-13T06:20:43.377Z,14.67
2018-05-13T06:23:11.646Z,14.07
2018-05-13T06:25:39.923Z,13.65
2018-05-13T06:28:08.188Z,11.60
2018-05-13T06:30:36.441Z,13.43
2018-05-13T06:33:04.688Z,10.50
2018-05-13T06:35:34.220Z,11.77
2018-05-13T06:38:02.499Z,11.93
2018-05-13T06:40:32.134Z,12.00
2018-05-13T06:43:00.419Z,11.03
2018-05-13T06:45:29.291Z,12.03
2018-05-13T06:47:57.583Z,11.60
2018-05-13T06:50:25.867Z,13.40
2018-05-13T06:52:54.117Z,14.43
2018-05-13T06:55:23.166Z,12.13
2018-05-13T06:57:51.433Z,12.47
2018-05-13T07:00:19.700Z,12.70
2018-05-13T07:02:47.988Z,12.20
2018-05-13T07:05:17.013Z,11.80
2018-05-13T07:07:46.131Z,12.40
2018-05-13T07:10:14.441Z,12.03
2018-05-13T07:12:43.960Z,11.53
2018-05-13T07:15:13.596Z,12.97
2018-05-13T07:17:41.843Z,12.43
2018-05-13T07:20:10.918Z,14.07
2018-05-13T07:22:40.070Z,12.97
2018-05-13T07:25:08.321Z,12.55
2018-05-13T07:27:36.585Z,13.33
2018-05-13T07:30:05.577Z,13.53
2018-05-13T07:32:33.820Z,14.60
2018-05-13T07:35:02.088Z,13.20
2018-05-13T07:37:30.346Z,13.63
2018-05-13T07:39:58.880Z,12.83
2018-05-13T07:42:27.239Z,13.50
2018-05-13T07:44:56.236Z,13.97
2018-05-13T07:47:24.629Z,13.87
2018-05-13T07:49:52.999Z,13.70
2018-05-13T07:52:22.628Z,13.47
2018-05-13T07:54:50.903Z,15.13
2018-05-13T07:57:20.045Z,16.52
2018-05-13T07:59:48.398Z,14.23
2018-05-13T08:02:16.741Z,17.15
2018-05-13T08:04:45.824Z,17.03
2018-05-13T08:07:14.081Z,17.43
2018-05-13T08:09:42.346Z,19.58
2018-05-13T08:12:10.672Z,18.85
2018-05-13T08:14:38.920Z,18.52
2018-05-13T08:17:07.973Z,17.98
2018-05-13T08:19:37.000Z,19.90
2018-05-13T08:22:05.895Z,19.05
2018-05-13T08:24:34.292Z,21.17
2018-05-13T08:27:02.601Z,20.88
2018-05-13T08:29:30.875Z,22.40
2018-05-13T08:31:59.143Z,19.57
2018-05-13T08:34:27.385Z,20.23
2018-05-13T08:36:55.723Z,21.00
2018-05-13T08:39:23.969Z,23.00
2018-05-13T08:41:52.336Z,21.20
2018-05-13T08:44:20.497Z,23.40
2018-05-13T08:46:49.612Z,26.25
2018-05-13T08:49:17.877Z,27.52
2018-05-13T08:51:46.725Z,26.30
2018-05-13T08:54:14.960Z,27.62
2018-05-13T08:56:43.988Z,26.58
2018-05-13T08:59:12.263Z,26.67
2018-05-13T09:01:40.547Z,28.43
2018-05-13T09:04:08.880Z,27.87
2018-05-13T09:06:37.166Z,28.97
2018-05-13T09:09:05.437Z,31.50
2018-05-13T09:11:33.761Z,31.03
2018-05-13T09:14:03.463Z,31.63
2018-05-13T09:16:31.692Z,33.23
2018-05-13T09:18:59.955Z,32.17
2018-05-13T09:21:28.211Z,35.27
2018-05-13T09:23:57.231Z,34.57
2018-05-13T09:26:25.507Z,34.67
2018-05-13T09:28:53.776Z,34.93
2018-05-13T09:31:22.800Z,37.13
2018-05-13T09:33:51.050Z,36.87
2018-05-13T09:36:20.069Z,37.70
2018-05-13T09:38:48.428Z,37.87
2018-05-13T09:41:17.483Z,38.87
2018-05-13T09:43:45.707Z,38.93
2018-05-13T09:46:14.744Z,38.07
2018-05-13T09:48:43.019Z,38.23
2018-05-13T09:51:12.095Z,37.87
2018-05-13T09:53:40.320Z,39.20
2018-05-13T09:56:09.317Z,40.17
2018-05-13T09:58:37.567Z,38.30
2018-05-13T10:01:05.905Z,39.23
2018-05-13T10:03:34.148Z,37.57
2018-05-13T10:06:02.451Z,38.43
2018-05-13T10:08:31.483Z,38.83
2018-05-13T10:10:59.743Z,40.43
2018-05-13T10:13:28.061Z,38.27
2018-05-13T10:15:57.837Z,42.30
2018-05-13T10:18:26.872Z,40.50
2018-05-13T10:20:55.884Z,41.03
2018-05-13T10:23:24.190Z,40.63
2018-05-13T10:25:52.437Z,41.73
2018-05-13T10:28:21.507Z,42.77
2018-05-13T10:30:50.676Z,45.10
2018-05-13T10:33:19.680Z,44.60
2018-05-13T10:35:48.496Z,45.47
2018-05-13T10:38:16.760Z,42.27
2018-05-13T10:40:45.045Z,42.10
2018-05-13T10:43:13.355Z,48.07
2018-05-13T10:45:41.589Z,45.63
2018-05-13T10:48:09.851Z,49.53
2018-05-13T10:50:38.145Z,50.30
2018-05-13T10:53:06.409Z,50.30
2018-05-13T10:55:34.652Z,55.20
2018-05-13T10:58:02.952Z,56.00
2018-05-13T11:00:32.028Z,59.37
2018-05-13T11:03:00.291Z,58.27
2018-05-13T11:05:28.536Z,63.00
2018-05-13T11:07:56.806Z,65.50
2018-05-13T11:10:26.965Z,65.70
2018-05-13T11:12:55.345Z,64.07
2018-05-13T11:15:25.049Z,70.97
2018-05-13T11:17:53.328Z,69.57
2018-05-13T11:20:21.569Z,63.20
2018-05-13T11:22:49.852Z,61.00
2018-05-13T11:25:18.130Z,61.63
2018-05-13T11:27:46.392Z,63.23
2018-05-13T11:30:14.624Z,62.40
2018-05-13T11:32:42.899Z,63.63
2018-05-13T11:35:11.152Z,64.03
2018-05-13T11:37:39.440Z,68.37
2018-05-13T11:40:08.252Z,65.97
2018-05-13T11:42:37.273Z,66.63
2018-05-13T11:45:06.913Z,65.50
2018-05-13T11:47:35.176Z,60.70
2018-05-13T11:50:03.425Z,65.60
2018-05-13T11:52:32.456Z,63.00
2018-05-13T11:55:00.688Z,63.47
2018-05-13T11:57:28.951Z,63.27
2018-05-13T11:59:57.971Z,59.53
2018-05-13T12:02:27.277Z,56.93
2018-05-13T12:04:55.543Z,58.00
2018-05-13T12:07:23.852Z,56.53
2018-05-13T12:09:52.868Z,60.60
2018-05-13T12:12:21.123Z,57.10
2018-05-13T12:14:50.152Z,56.23
2018-05-13T12:17:18.413Z,57.57
2018-05-13T12:19:46.675Z,54.57
2018-05-13T12:22:14.903Z,54.40
2018-05-13T12:24:43.165Z,56.40
2018-05-13T12:27:12.236Z,54.53
2018-05-13T12:29:41.267Z,56.07
2018-05-13T12:32:10.253Z,57.40
2018-05-13T12:34:39.307Z,55.37
2018-05-13T12:37:07.572Z,54.50
2018-05-13T12:39:35.824Z,57.20
2018-05-13T12:42:04.075Z,65.57
2018-05-13T12:44:32.388Z,67.13
2018-05-13T12:47:01.473Z,66.93
2018-05-13T12:49:30.498Z,65.60
2018-05-13T12:51:59.251Z,72.43
2018-05-13T12:54:27.709Z,67.10
2018-05-13T12:56:57.243Z,64.93
2018-05-13T12:59:25.524Z,63.97
2018-05-13T13:01:53.757Z,58.77
2018-05-13T13:04:22.008Z,57.37
2018-05-13T13:06:50.300Z,57.83
2018-05-13T13:09:18.561Z,57.20
2018-05-13T13:11:47.675Z,55.20
2018-05-13T13:14:16.708Z,53.60
2018-05-13T13:16:44.951Z,55.90
2018-05-13T13:19:14.811Z,50.30
2018-05-13T13:21:43.044Z,46.53
2018-05-13T13:24:12.808Z,48.03
2018-05-13T13:26:41.107Z,42.67
2018-05-13T13:29:09.577Z,45.20
2018-05-13T13:31:37.845Z,42.20
2018-05-13T13:34:06.094Z,42.30
2018-05-13T13:36:35.269Z,45.00
2018-05-13T13:39:04.264Z,46.73
2018-05-13T13:41:32.509Z,47.40
2018-05-13T13:44:00.757Z,45.93
2018-05-13T13:46:29.775Z,50.87
2018-05-13T13:48:58.269Z,50.20
2018-05-13T13:51:26.498Z,53.03
2018-05-13T13:53:54.786Z,53.97
2018-05-13T13:56:23.056Z,51.20
2018-05-13T13:58:51.301Z,48.33
2018-05-13T14:01:19.551Z,47.87
2018-05-13T14:03:47.811Z,49.57
2018-05-13T14:06:16.072Z,48.93
2018-05-13T14:08:44.300Z,49.80
2018-05-13T14:11:12.572Z,50.57
2018-05-13T14:13:41.694Z,51.07
2018-05-13T14:16:09.958Z,51.13
2018-05-13T14:18:38.197Z,49.43
2018-05-13T14:21:06.497Z,49.37
2018-05-13T14:23:34.757Z,49.87
2018-05-13T14:26:03.007Z,50.67
2018-05-13T14:28:31.360Z,48.93
2018-05-13T14:31:00.395Z,47.00
2018-05-13T14:33:28.658Z,45.60
2018-05-13T14:35:57.105Z,42.90
2018-05-13T14:38:25.515Z,47.17
2018-05-13T14:40:54.636Z,48.97
2018-05-13T14:43:22.784Z,51.10
2018-05-13T14:45:52.545Z,50.77
2018-05-13T14:48:20.797Z,48.37
2018-05-13T14:50:49.068Z,50.60
2018-05-13T14:53:17.323Z,49.27
2018-05-13T14:55:46.480Z,49.60
2018-05-13T14:58:16.184Z,49.27
2018-05-13T15:00:44.431Z,46.43
2018-05-13T15:03:13.467Z,45.97
2018-05-13T15:05:41.807Z,44.40
2018-05-13T15:08:10.024Z,43.37
2018-05-13T15:10:38.297Z,42.13
2018-05-13T15:13:07.132Z,44.20
2018-05-13T15:15:35.397Z,49.10
2018-05-13T15:18:03.651Z,48.00
2018-05-13T15:20:31.940Z,43.30
2018-05-13T15:23:00.188Z,43.43
2018-05-13T15:25:28.904Z,43.77
2018-05-13T15:27:57.164Z,39.63
2018-05-13T15:30:26.227Z,40.37
2018-05-13T15:32:54.454Z,42.80
2018-05-13T15:35:23.509Z,40.37
2018-05-13T15:37:52.479Z,35.83
2018-05-13T15:40:20.740Z,35.93
2018-05-13T15:42:49.894Z,33.03
2018-05-13T15:45:18.053Z,31.17
2018-05-13T15:47:46.345Z,35.80
2018-05-13T15:50:14.592Z,32.60
2018-05-13T15:52:42.873Z,33.20
2018-05-13T15:55:11.652Z,33.33
2018-05-13T15:57:39.916Z,31.50
2018-05-13T16:00:08.198Z,34.80
2018-05-13T16:02:36.448Z,30.30
2018-05-13T16:05:04.708Z,32.10
2018-05-13T16:07:33.012Z,33.37
2018-05-13T16:10:02.117Z,34.40
2018-05-13T16:12:31.934Z,34.40
2018-05-13T16:15:00.185Z,33.90
2018-05-13T16:17:28.421Z,31.53
2018-05-13T16:19:56.696Z,33.17
2018-05-13T16:22:29.584Z,30.97
2018-05-13T16:24:58.795Z,32.43
2018-05-13T16:27:27.790Z,33.37
2018-05-13T16:29:56.105Z,32.47
2018-05-13T16:32:25.082Z,31.40
2018-05-13T16:34:54.876Z,33.10
2018-05-13T16:37:23.216Z,34.77
2018-05-13T16:39:51.748Z,34.63
2018-05-13T16:42:20.030Z,35.73
2018-05-13T16:44:48.274Z,34.47
2018-05-13T16:47:16.541Z,33.80
2018-05-13T16:49:44.787Z,35.10
2018-05-13T16:52:13.850Z,34.53
2018-05-13T16:54:42.131Z,35.67
2018-05-13T16:57:10.380Z,32.80
2018-05-13T16:59:38.624Z,33.43
2018-05-13T17:02:06.887Z,35.10
2018-05-13T17:04:35.939Z,35.23
2018-05-13T17:07:04.232Z,36.70
2018-05-13T17:09:32.501Z,35.33
2018-05-13T17:12:00.737Z,36.00
2018-05-13T17:14:29.003Z,35.60
2018-05-13T17:16:57.256Z,36.47
2018-05-13T17:19:25.831Z,40.43
2018-05-13T17:21:54.041Z,37.23
2018-05-13T17:24:22.330Z,39.10
2018-05-13T17:26:50.576Z,37.47
2018-05-13T17:29:18.856Z,41.17
2018-05-13T17:31:47.131Z,37.67
2018-05-13T17:34:15.471Z,39.13
2018-05-13T17:36:45.192Z,37.90
2018-05-13T17:39:13.490Z,38.50
2018-05-13T17:41:41.708Z,41.97
2018-05-13T17:44:10.055Z,39.97
2018-05-13T17:46:39.133Z,42.77
2018-05-13T17:49:07.401Z,42.03
2018-05-13T17:51:35.617Z,42.77
2018-05-13T17:54:04.636Z,38.40
2018-05-13T17:56:32.921Z,38.67
2018-05-13T17:59:01.953Z,39.93
2018-05-13T18:01:30.223Z,41.73
2018-05-13T18:03:58.486Z,43.60
2018-05-13T18:06:26.711Z,43.23
2018-05-13T18:08:54.974Z,36.60
2018-05-13T18:11:23.231Z,42.80
2018-05-13T18:13:51.504Z,41.23
2018-05-13T18:16:19.756Z,37.40
2018-05-13T18:18:48.011Z,38.50
2018-05-13T18:21:16.289Z,42.43
2018-05-13T18:23:44.545Z,42.07
2018-05-13T18:26:13.298Z,43.70
2018-05-13T18:28:48.700Z,39.97
2018-05-13T18:31:16.933Z,40.27
2018-05-13T18:33:46.680Z,40.87
2018-05-13T18:36:14.914Z,37.80
2018-05-13T18:38:44.008Z,44.57
2018-05-13T18:41:12.252Z,38.13
2018-05-13T18:43:40.523Z,41.13
2018-05-13T18:46:08.779Z,38.10
2018-05-13T18:48:37.804Z,43.47
2018-05-13T18:51:06.124Z,43.43
2018-05-13T18:53:34.423Z,41.53
2018-05-13T18:56:02.679Z,37.90
2018-05-13T18:58:30.988Z,36.20
2018-05-13T19:00:59.248Z,39.60
2018-05-13T19:03:27.525Z,39.67
2018-05-13T19:05:55.799Z,40.00
2018-05-13T19:08:24.098Z,34.87
2018-05-13T19:10:52.349Z,34.73
2018-05-13T19:13:20.621Z,34.97
2018-05-13T19:15:48.984Z,36.83
2018-05-13T19:18:17.277Z,34.40
2018-05-13T19:20:45.539Z,34.00
2018-05-13T19:23:13.810Z,34.00
2018-05-13T19:25:42.843Z,34.73
2018-05-13T19:28:11.176Z,33.50
2018-05-13T19:30:39.480Z,35.80
2018-05-13T19:33:08.533Z,37.60
2018-05-13T19:35:36.792Z,34.40
2018-05-13T19:38:05.077Z,34.97
2018-05-13T19:40:33.353Z,36.30
2018-05-13T19:43:01.629Z,35.43
2018-05-13T19:45:29.890Z,32.20
2018-05-13T19:47:58.923Z,34.17
2018-05-13T19:50:27.193Z,32.90
2018-05-13T19:52:55.437Z,34.20
2018-05-13T19:55:24.496Z,35.20
2018-05-13T19:57:52.770Z,34.63
2018-05-13T20:00:21.035Z,33.70
2018-05-13T20:02:49.457Z,34.37
2018-05-13T20:05:17.631Z,34.47
2018-05-13T20:07:45.886Z,34.47
2018-05-13T20:10:14.659Z,35.43
2018-05-13T20:12:44.282Z,34.17
2018-05-13T20:15:12.570Z,35.87
2018-05-13T20:17:40.815Z,36.37
2018-05-13T20:20:09.849Z,34.30
2018-05-13T20:25:44.148Z,33.87
2018-05-13T20:28:13.161Z,31.43
2018-05-13T20:30:41.436Z,33.70
2018-05-13T20:33:09.725Z,36.43
2018-05-13T20:35:38.004Z,34.37
2018-05-13T20:38:06.242Z,36.70
2018-05-13T20:40:34.537Z,33.30
2018-05-13T20:43:03.637Z,32.00
2018-05-13T20:45:32.687Z,38.17
2018-05-13T20:48:00.960Z,35.13
2018-05-13T20:50:29.513Z,35.57
2018-05-13T20:52:57.766Z,29.50
2018-05-13T20:55:26.013Z,35.47
2018-05-13T20:57:55.169Z,34.93
2018-05-13T21:00:24.725Z,39.37
2018-05-13T21:02:52.971Z,39.23
2018-05-13T21:05:22.069Z,41.23
2018-05-13T21:07:50.260Z,38.47
2018-05-13T21:10:18.530Z,37.97
2018-05-13T21:12:47.560Z,39.97
2018-05-13T21:15:15.820Z,40.00
2018-05-13T21:17:44.872Z,40.20
2018-05-13T21:20:13.165Z,41.80
2018-05-13T21:22:41.409Z,38.27
2018-05-13T21:25:09.692Z,40.73
2018-05-13T21:27:37.968Z,35.87
2018-05-13T21:30:06.312Z,35.03
2018-05-13T21:32:35.246Z,38.67
2018-05-13T21:35:03.885Z,37.27
2018-05-13T21:37:32.164Z,40.43
2018-05-13T21:40:00.411Z,42.50
2018-05-13T21:42:28.740Z,41.23
2018-05-13T21:44:57.776Z,35.10
2018-05-13T21:47:26.065Z,37.57
2018-05-13T21:49:54.405Z,42.47
2018-05-13T21:52:23.456Z,36.57
2018-05-13T21:54:51.713Z,40.93
2018-05-13T21:57:19.985Z,37.20
2018-05-13T21:59:48.999Z,39.90
2018-05-13T22:02:17.376Z,42.80
2018-05-13T22:04:56.924Z,40.00
2018-05-13T22:07:25.212Z,38.50
2018-05-13T22:09:53.448Z,40.97
2018-05-13T22:12:22.528Z,42.03
2018-05-13T22:14:50.848Z,39.63
2018-05-13T22:17:19.853Z,37.73
2018-05-13T22:19:48.593Z,36.93
2018-05-13T22:22:16.827Z,35.07
2018-05-13T22:24:45.197Z,38.87
2018-05-13T22:27:14.208Z,36.67
2018-05-13T22:29:42.472Z,44.90
2018-05-13T22:32:11.511Z,41.53
2018-05-13T22:34:39.771Z,39.97
2018-05-13T22:37:08.023Z,38.43
2018-05-13T22:39:37.028Z,39.53
2018-05-13T22:42:06.049Z,38.97
2018-05-13T22:44:34.328Z,34.03
2018-05-13T22:47:02.651Z,35.50
2018-05-13T22:49:30.840Z,38.70
2018-05-13T22:51:59.555Z,37.90
2018-05-13T22:54:29.345Z,41.03
2018-05-13T22:56:57.618Z,42.03
2018-05-13T22:59:25.848Z,39.53
2018-05-13T23:01:54.873Z,36.97
2018-05-13T23:04:23.201Z,39.93
2018-05-13T23:06:51.399Z,41.20
2018-05-13T23:09:20.429Z,40.50
2018-05-13T23:11:48.680Z,43.10
2018-05-13T23:14:17.739Z,43.00
2018-05-13T23:16:46.021Z,41.77
2018-05-13T23:19:14.255Z,41.63
2018-05-13T23:21:42.510Z,38.87
2018-05-13T23:24:11.511Z,36.77
2018-05-13T23:26:40.517Z,41.50
2018-05-13T23:29:09.554Z,41.37
2018-05-13T23:31:37.788Z,49.83
2018-05-13T23:34:06.840Z,46.03
2018-05-13T23:36:35.077Z,47.43
2018-05-13T23:39:04.112Z,43.03
2018-05-13T23:41:32.882Z,45.33
2018-05-13T23:44:01.900Z,43.43
2018-05-13T23:46:30.145Z,48.30
2018-05-13T23:48:59.183Z,45.87
2018-05-13T23:51:27.445Z,46.33
2018-05-13T23:53:56.509Z,45.67
2018-05-13T23:56:24.751Z,42.23
2018-05-13T23:58:53.011Z,45.23
